Time;durP1;ratioP1;P1;durP2;ratioP2;P2;SDS_P1;SDS_P2;PMS_P1;PMS_P2;Temp;Humidity;BMP_temperature;BMP_pressure;BME280_temperature;BME280_humidity;BME280_pressure;Samples;Min_cycle;Max_cycle;Signal;HPM_P1;HPM_P2
2024/01/17 00:01:58;;;;;;;3.63;1.92;;;2.00;99.90;;;;;;5034390;28;20477;-71
2024/01/17 00:04:24;;;;;;;1.52;1.38;;;2.00;99.90;;;;;;5034261;28;20048;-71
2024/01/17 00:06:49;;;;;;;1.25;1.08;;;2.00;99.90;;;;;;5033962;28;20461;-70
2024/01/17 00:09:15;;;;;;;2.03;1.30;;;1.90;99.90;;;;;;5034028;28;20107;-71
2024/01/17 00:11:44;;;;;;;4.38;3.08;;;1.90;99.90;;;;;;5034260;28;20492;-71
2024/01/17 00:14:11;;;;;;;4.28;2.45;;;1.90;99.90;;;;;;5034174;28;20650;-70
2024/01/17 00:16:37;;;;;;;4.57;2.67;;;1.80;99.90;;;;;;5033967;28;20018;-70
2024/01/17 00:19:02;;;;;;;4.38;1.92;;;1.80;99.90;;;;;;5033801;28;20484;-70
2024/01/17 00:21:28;;;;;;;6.70;2.05;;;1.80;99.90;;;;;;5034100;28;20045;-71
2024/01/17 00:23:54;;;;;;;0.80;0.80;;;1.90;99.90;;;;;;5034471;28;20030;-70
2024/01/17 00:26:20;;;;;;;1.98;1.85;;;1.90;99.90;;;;;;5033936;28;20113;-71
2024/01/17 00:28:45;;;;;;;3.35;2.05;;;1.90;99.90;;;;;;5033936;28;20040;-71
2024/01/17 00:31:12;;;;;;;2.63;1.25;;;1.90;99.90;;;;;;5033878;28;20098;-71
2024/01/17 00:33:37;;;;;;;3.17;2.65;;;1.80;99.90;;;;;;5033405;28;20034;-71
2024/01/17 00:36:03;;;;;;;6.40;3.75;;;1.80;99.90;;;;;;5033469;28;20099;-71
2024/01/17 00:38:31;;;;;;;4.85;3.00;;;1.70;99.90;;;;;;5033558;28;20025;-71
2024/01/17 00:40:56;;;;;;;7.78;3.92;;;1.60;99.90;;;;;;5033311;28;20095;-71
2024/01/17 00:43:22;;;;;;;8.23;3.33;;;1.60;99.90;;;;;;5033652;28;20022;-71
2024/01/17 00:45:48;;;;;;;2.70;1.52;;;1.50;99.90;;;;;;5033362;28;20029;-71
2024/01/17 00:48:13;;;;;;;7.93;3.95;;;1.60;99.90;;;;;;5033553;28;20098;-71
2024/01/17 00:50:39;;;;;;;6.50;2.78;;;1.50;99.90;;;;;;5033240;28;20037;-71
2024/01/17 00:53:05;;;;;;;8.38;3.30;;;1.50;99.90;;;;;;5033417;28;20040;-71
2024/01/17 00:55:31;;;;;;;3.28;2.50;;;1.50;99.90;;;;;;5033462;28;20034;-71
2024/01/17 00:57:57;;;;;;;1.90;1.40;;;1.50;99.90;;;;;;5033112;28;20021;-71
2024/01/17 01:00:23;;;;;;;1.90;1.48;;;1.60;99.90;;;;;;5033454;28;20388;-71
2024/01/17 01:02:50;;;;;;;4.65;2.83;;;1.60;99.90;;;;;;5033579;28;20041;-71
2024/01/17 01:05:16;;;;;;;2.83;2.55;;;1.70;99.90;;;;;;5033112;28;20044;-70
2024/01/17 01:07:41;;;;;;;6.45;3.25;;;1.70;99.90;;;;;;5031685;28;20029;-71
2024/01/17 01:10:07;;;;;;;13.90;5.05;;;1.70;99.90;;;;;;5033102;28;20076;-71
2024/01/17 01:12:33;;;;;;;3.33;2.53;;;1.80;99.90;;;;;;5033172;28;20502;-70
2024/01/17 01:14:59;;;;;;;1.85;1.60;;;1.80;99.90;;;;;;5033181;28;20553;-71
2024/01/17 01:17:25;;;;;;;2.58;2.20;;;1.80;99.90;;;;;;5033284;28;20117;-71
2024/01/17 01:19:50;;;;;;;3.10;2.17;;;1.80;99.90;;;;;;5032708;28;20375;-71
2024/01/17 01:22:16;;;;;;;9.45;3.53;;;1.80;99.90;;;;;;5032998;28;20028;-71
2024/01/17 01:24:41;;;;;;;2.92;2.58;;;1.80;99.90;;;;;;5032737;28;20088;-72
2024/01/17 01:27:07;;;;;;;6.03;3.83;;;1.80;99.90;;;;;;5032912;28;20026;-71
2024/01/17 01:29:32;;;;;;;9.73;4.43;;;1.80;99.90;;;;;;5032896;28;20417;-71
2024/01/17 01:31:58;;;;;;;2.10;1.88;;;1.80;99.90;;;;;;5032528;28;20513;-71
2024/01/17 01:34:24;;;;;;;4.28;2.50;;;1.80;99.90;;;;;;5032685;28;20033;-71
2024/01/17 01:36:49;;;;;;;10.07;4.55;;;1.80;99.90;;;;;;5032869;28;20469;-71
2024/01/17 01:39:15;;;;;;;3.58;2.33;;;1.80;99.90;;;;;;5032704;28;20389;-70
2024/01/17 01:41:41;;;;;;;1.33;1.20;;;1.80;99.90;;;;;;5032919;28;20029;-71
2024/01/17 01:44:06;;;;;;;2.92;1.65;;;1.80;99.90;;;;;;5032550;28;20099;-70
2024/01/17 01:46:32;;;;;;;4.80;3.15;;;1.90;99.90;;;;;;5032637;28;20475;-71
2024/01/17 01:48:58;;;;;;;8.52;3.20;;;1.90;99.90;;;;;;5031763;28;20503;-71
2024/01/17 01:51:27;;;;;;;7.68;3.03;;;1.90;99.90;;;;;;5032341;28;20112;-71
2024/01/17 01:53:57;;;;;;;5.43;2.90;;;1.80;99.90;;;;;;5032592;28;20117;-72
2024/01/17 01:56:28;;;;;;;4.43;2.80;;;1.80;99.90;;;;;;5032637;28;20018;-71
2024/01/17 01:58:55;;;;;;;10.25;5.10;;;1.80;99.90;;;;;;5032840;28;20029;-72
2024/01/17 02:01:21;;;;;;;7.28;3.78;;;1.90;99.90;;;;;;5031250;28;20038;-71
2024/01/17 02:03:47;;;;;;;3.47;2.33;;;1.90;99.90;;;;;;5031265;28;20026;-71
2024/01/17 02:06:14;;;;;;;1.75;1.17;;;1.90;99.90;;;;;;5032175;28;20049;-69
2024/01/17 02:08:40;;;;;;;1.50;1.35;;;2.00;99.90;;;;;;5032352;28;20026;-72
2024/01/17 02:11:07;;;;;;;5.40;3.30;;;2.10;99.90;;;;;;5032506;28;20037;-71
2024/01/17 02:13:33;;;;;;;3.45;3.00;;;2.10;99.90;;;;;;5032508;28;20056;-72
2024/01/17 02:16:00;;;;;;;1.25;1.23;;;2.10;99.90;;;;;;5032133;28;20461;-71
2024/01/17 02:18:26;;;;;;;0.57;0.57;;;2.10;99.90;;;;;;5032514;28;20107;-71
2024/01/17 02:20:52;;;;;;;6.13;3.15;;;2.10;99.90;;;;;;5032489;28;20064;-72
2024/01/17 02:23:25;;;;;;;3.80;2.65;;;2.20;99.90;;;;;;5032412;28;20061;-71
2024/01/17 02:25:51;;;;;;;4.20;3.15;;;2.20;99.90;;;;;;5031219;28;20030;-71
2024/01/17 02:28:17;;;;;;;6.57;4.00;;;2.20;99.90;;;;;;5032411;28;20052;-71
2024/01/17 02:30:43;;;;;;;0.77;0.73;;;2.20;99.90;;;;;;5031926;28;20392;-71
2024/01/17 02:33:09;;;;;;;7.05;4.38;;;2.20;99.90;;;;;;5032030;28;20402;-71
2024/01/17 02:35:36;;;;;;;6.85;3.63;;;2.10;99.90;;;;;;5031738;28;20071;-71
2024/01/17 02:38:03;;;;;;;9.10;4.25;;;2.10;99.90;;;;;;5031905;28;20022;-72
2024/01/17 02:40:28;;;;;;;7.10;2.88;;;2.10;99.90;;;;;;5032364;28;20022;-71
2024/01/17 02:42:54;;;;;;;5.13;2.55;;;2.10;99.90;;;;;;5030894;28;20041;-72
2024/01/17 02:45:20;;;;;;;7.90;4.65;;;2.10;99.90;;;;;;5032054;28;20040;-69
2024/01/17 02:47:46;;;;;;;6.38;3.25;;;2.10;99.90;;;;;;5031888;28;20029;-71
2024/01/17 02:50:14;;;;;;;6.40;3.85;;;2.00;99.90;;;;;;5030716;28;20036;-71
2024/01/17 02:52:41;;;;;;;6.10;2.28;;;2.00;99.90;;;;;;5031870;28;20120;-71
2024/01/17 02:55:09;;;;;;;6.25;3.70;;;1.90;99.90;;;;;;5031981;28;20025;-71
2024/01/17 02:57:34;;;;;;;6.15;3.95;;;1.90;99.90;;;;;;5032039;28;20030;-70
2024/01/17 03:00:00;;;;;;;4.55;2.45;;;1.90;99.90;;;;;;5034822;28;20033;-71
2024/01/17 03:02:25;;;;;;;1.92;1.75;;;1.90;99.90;;;;;;5035015;28;20034;-71
2024/01/17 03:04:51;;;;;;;3.40;3.10;;;1.90;99.90;;;;;;5035513;28;20029;-71
2024/01/17 03:07:17;;;;;;;3.50;1.55;;;2.00;99.90;;;;;;5035551;28;20035;-71
2024/01/17 03:09:42;;;;;;;9.80;4.25;;;1.90;99.90;;;;;;5034970;28;20046;-71
2024/01/17 03:12:08;;;;;;;9.48;5.50;;;1.90;99.90;;;;;;5035547;28;20365;-71
2024/01/17 03:14:33;;;;;;;4.63;3.20;;;1.90;99.90;;;;;;5035495;28;20466;-71
2024/01/17 03:16:59;;;;;;;8.20;4.95;;;1.90;99.90;;;;;;5035153;28;20032;-71
2024/01/17 03:19:25;;;;;;;0.98;0.98;;;1.90;99.90;;;;;;5035240;28;20079;-71
2024/01/17 03:21:50;;;;;;;15.88;4.72;;;1.90;99.90;;;;;;5035310;28;20049;-71
2024/01/17 03:24:16;;;;;;;6.43;3.70;;;1.90;99.90;;;;;;5035173;28;20039;-71
2024/01/17 03:26:42;;;;;;;4.00;1.83;;;1.90;99.90;;;;;;5035327;28;20041;-71
2024/01/17 03:29:08;;;;;;;0.80;0.80;;;1.90;99.90;;;;;;5035316;28;20062;-72
2024/01/17 03:31:33;;;;;;;3.67;2.38;;;1.90;99.90;;;;;;5034869;28;20426;-71
2024/01/17 03:33:59;;;;;;;5.63;3.35;;;1.90;99.90;;;;;;5033660;28;20045;-72
2024/01/17 03:36:24;;;;;;;4.20;2.80;;;1.90;99.90;;;;;;5034939;28;20026;-71
2024/01/17 03:38:50;;;;;;;4.05;2.85;;;1.90;99.90;;;;;;5034923;28;20078;-70
2024/01/17 03:41:15;;;;;;;7.03;3.15;;;1.90;99.90;;;;;;5034592;28;20772;-71
2024/01/17 03:43:41;;;;;;;6.72;3.03;;;1.90;99.90;;;;;;5034805;28;20377;-70
2024/01/17 03:46:07;;;;;;;9.32;4.47;;;1.80;99.90;;;;;;5033172;28;20131;-72
2024/01/17 03:48:33;;;;;;;9.80;3.15;;;1.80;99.90;;;;;;5034317;28;20030;-71
2024/01/17 03:50:58;;;;;;;6.88;3.85;;;1.70;99.90;;;;;;5034578;28;20419;-71
2024/01/17 03:53:24;;;;;;;3.65;2.55;;;1.70;99.90;;;;;;5034361;28;20132;-71
2024/01/17 03:55:49;;;;;;;3.80;2.08;;;1.70;99.90;;;;;;5034235;28;20126;-70
2024/01/17 03:58:15;;;;;;;6.32;3.53;;;1.70;99.90;;;;;;5034428;28;20059;-71
2024/01/17 04:00:40;;;;;;;11.70;4.97;;;1.70;99.90;;;;;;5034285;28;20416;-72
2024/01/17 04:03:11;;;;;;;6.88;2.47;;;1.60;99.90;;;;;;5034422;28;20038;-71
2024/01/17 04:05:37;;;;;;;5.25;3.28;;;1.60;99.90;;;;;;5033142;28;20030;-71
2024/01/17 04:08:04;;;;;;;5.10;3.53;;;1.60;99.90;;;;;;5034408;28;20061;-71
2024/01/17 04:10:29;;;;;;;13.25;4.95;;;1.60;99.90;;;;;;5033521;28;20069;-70
2024/01/17 04:12:55;;;;;;;12.07;4.88;;;1.50;99.90;;;;;;5034241;28;20452;-71
2024/01/17 04:15:21;;;;;;;9.82;5.45;;;1.50;99.90;;;;;;5033812;28;20025;-70
2024/01/17 04:17:46;;;;;;;8.02;4.82;;;1.40;99.90;;;;;;5034034;28;20030;-71
2024/01/17 04:20:12;;;;;;;1.13;1.13;;;1.40;99.90;;;;;;5033843;28;20037;-70
2024/01/17 04:22:37;;;;;;;3.10;2.90;;;1.40;99.90;;;;;;5034101;28;20111;-69
2024/01/17 04:25:03;;;;;;;3.78;1.60;;;1.40;99.90;;;;;;5034239;28;20033;-70
2024/01/17 04:27:31;;;;;;;7.50;3.97;;;1.30;99.90;;;;;;5034058;28;20419;-70
2024/01/17 04:29:56;;;;;;;8.68;3.92;;;1.30;99.90;;;;;;5033546;28;20033;-70
2024/01/17 04:32:22;;;;;;;1.45;1.42;;;1.20;99.90;;;;;;5032782;28;20033;-69
2024/01/17 04:34:47;;;;;;;5.72;4.03;;;1.20;99.90;;;;;;5033823;28;20116;-69
2024/01/17 04:37:13;;;;;;;10.15;5.35;;;1.20;99.90;;;;;;5033650;28;20107;-69
2024/01/17 04:39:39;;;;;;;10.45;5.00;;;1.10;99.90;;;;;;5033387;28;20033;-69
2024/01/17 04:42:04;;;;;;;10.40;4.65;;;1.00;99.90;;;;;;5032233;28;20041;-69
2024/01/17 04:44:30;;;;;;;3.08;2.88;;;1.00;99.90;;;;;;5033295;28;20588;-70
2024/01/17 04:46:57;;;;;;;9.07;5.13;;;1.00;99.90;;;;;;5033576;28;20112;-69
2024/01/17 04:49:26;;;;;;;4.30;2.78;;;1.00;99.90;;;;;;5033540;28;20025;-69
2024/01/17 04:51:52;;;;;;;7.35;4.15;;;1.00;99.90;;;;;;5033544;28;20053;-69
2024/01/17 04:54:19;;;;;;;6.18;3.92;;;1.00;99.90;;;;;;5033299;28;20037;-69
2024/01/17 04:56:44;;;;;;;11.98;5.97;;;1.00;99.90;;;;;;5032673;28;20037;-68
2024/01/17 04:59:10;;;;;;;8.73;4.72;;;1.00;99.90;;;;;;5032762;28;20374;-70
2024/01/17 05:01:36;;;;;;;3.42;3.13;;;1.00;99.90;;;;;;5032918;28;20457;-69
2024/01/17 05:04:02;;;;;;;8.30;5.05;;;1.00;99.90;;;;;;5033700;28;20075;-69
2024/01/17 05:06:28;;;;;;;4.93;3.55;;;1.10;99.90;;;;;;5031968;28;20037;-70
2024/01/17 05:08:56;;;;;;;7.97;5.75;;;1.10;99.90;;;;;;5032840;28;20052;-70
2024/01/17 05:11:22;;;;;;;7.93;5.72;;;1.10;99.90;;;;;;5033273;28;20018;-69
2024/01/17 05:13:48;;;;;;;4.45;2.88;;;1.10;99.90;;;;;;5032980;28;20041;-69
2024/01/17 05:16:14;;;;;;;5.80;4.03;;;1.10;99.90;;;;;;5033139;28;20369;-69
2024/01/17 05:18:39;;;;;;;5.90;4.10;;;1.10;99.90;;;;;;5033041;28;20524;-67
2024/01/17 05:21:05;;;;;;;2.40;2.20;;;1.10;99.90;;;;;;5033053;28;20105;-68
2024/01/17 05:23:31;;;;;;;7.57;3.30;;;1.10;99.90;;;;;;5033136;28;20025;-68
2024/01/17 05:25:56;;;;;;;8.00;4.15;;;1.10;99.90;;;;;;5033085;28;20022;-69
2024/01/17 05:28:22;;;;;;;9.57;4.80;;;1.10;99.90;;;;;;5032813;28;20037;-68
2024/01/17 05:30:48;;;;;;;20.63;9.93;;;1.20;99.90;;;;;;5032815;28;20048;-68
2024/01/17 05:33:13;;;;;;;2.17;1.95;;;1.20;99.90;;;;;;5032934;28;20041;-68
2024/01/17 05:35:40;;;;;;;5.88;3.95;;;1.20;99.90;;;;;;5031654;28;20026;-69
2024/01/17 05:38:06;;;;;;;7.63;4.78;;;1.30;99.90;;;;;;5032916;28;20399;-69
2024/01/17 05:40:31;;;;;;;7.35;4.10;;;1.30;99.90;;;;;;5032834;28;20120;-69
2024/01/17 05:42:57;;;;;;;7.97;5.00;;;1.30;99.90;;;;;;5032493;28;20030;-69
2024/01/17 05:45:23;;;;;;;10.88;5.00;;;1.30;99.90;;;;;;5032862;28;20037;-69
2024/01/17 05:47:48;;;;;;;11.77;4.75;;;1.30;99.90;;;;;;5032981;28;20033;-69
2024/01/17 05:50:14;;;;;;;3.35;2.15;;;1.30;99.90;;;;;;5032944;28;20080;-69
2024/01/17 05:52:48;;;;;;;6.07;4.22;;;1.30;99.90;;;;;;5032869;28;20116;-69
2024/01/17 05:55:15;;;;;;;5.88;3.20;;;1.20;99.90;;;;;;5032877;28;20079;-70
2024/01/17 05:57:41;;;;;;;5.53;3.88;;;1.20;99.90;;;;;;5032614;28;20022;-69
2024/01/17 06:00:10;;;;;;;11.93;5.68;;;1.20;99.90;;;;;;5032700;28;20026;-70
2024/01/17 06:02:36;;;;;;;8.27;4.22;;;1.20;99.90;;;;;;5032706;28;20026;-70
2024/01/17 06:05:03;;;;;;;6.18;4.07;;;1.20;99.90;;;;;;5032592;28;20026;-69
2024/01/17 06:07:29;;;;;;;6.93;5.32;;;1.20;99.90;;;;;;5032810;28;20079;-69
2024/01/17 06:09:54;;;;;;;3.22;2.92;;;1.10;99.90;;;;;;5032062;28;20050;-68
2024/01/17 06:12:20;;;;;;;13.38;4.47;;;1.10;99.90;;;;;;5032455;28;20057;-69
2024/01/17 06:14:48;;;;;;;5.57;4.53;;;1.10;99.90;;;;;;5032567;28;20037;-69
2024/01/17 06:17:13;;;;;;;1.83;1.73;;;1.10;99.90;;;;;;5032530;28;20055;-69
2024/01/17 06:19:40;;;;;;;13.73;6.22;;;1.10;99.90;;;;;;5032566;28;20413;-70
2024/01/17 06:22:06;;;;;;;20.00;7.18;;;1.00;99.90;;;;;;5030875;28;20483;-69
2024/01/17 06:24:31;;;;;;;9.43;5.03;;;1.00;99.90;;;;;;5032142;28;20108;-69
2024/01/17 06:26:57;;;;;;;14.00;6.43;;;0.90;99.90;;;;;;5032730;28;20081;-69
2024/01/17 06:29:22;;;;;;;6.68;4.25;;;0.90;99.90;;;;;;5032111;28;20082;-69
2024/01/17 06:31:48;;;;;;;7.63;4.82;;;0.90;99.90;;;;;;5032391;28;20049;-69
2024/01/17 06:34:14;;;;;;;3.80;3.03;;;0.80;99.90;;;;;;5033620;28;20088;-69
2024/01/17 06:36:39;;;;;;;3.58;3.30;;;0.80;99.90;;;;;;5036107;28;20037;-69
2024/01/17 06:39:05;;;;;;;7.78;5.55;;;0.80;99.90;;;;;;5034647;28;20029;-70
2024/01/17 06:41:31;;;;;;;8.38;3.83;;;0.80;99.90;;;;;;5035256;28;20042;-69
2024/01/17 06:43:56;;;;;;;5.68;3.83;;;0.80;99.90;;;;;;5035797;28;20022;-69
2024/01/17 06:46:22;;;;;;;12.85;6.20;;;0.80;99.90;;;;;;5035776;28;20029;-69
2024/01/17 06:48:47;;;;;;;7.63;4.43;;;0.70;99.90;;;;;;5035733;28;20105;-68
2024/01/17 06:51:13;;;;;;;11.02;5.95;;;0.70;99.90;;;;;;5035964;28;20079;-70
2024/01/17 06:53:38;;;;;;;4.45;3.75;;;0.70;99.90;;;;;;5035614;28;20041;-69
2024/01/17 06:56:05;;;;;;;13.32;6.85;;;0.70;99.90;;;;;;5035692;28;20030;-68
2024/01/17 06:58:30;;;;;;;10.68;6.80;;;0.70;99.90;;;;;;5035627;28;20386;-69
2024/01/17 07:00:56;;;;;;;7.82;4.28;;;0.70;99.90;;;;;;5035564;28;20034;-71
2024/01/17 07:03:22;;;;;;;15.73;6.50;;;0.70;99.90;;;;;;5035238;28;20033;-71
2024/01/17 07:05:47;;;;;;;9.43;5.30;;;0.70;99.90;;;;;;5035698;28;20052;-70
2024/01/17 07:08:13;;;;;;;5.18;4.57;;;0.70;99.90;;;;;;5034949;28;20376;-70
2024/01/17 07:10:39;;;;;;;2.28;2.17;;;0.70;99.90;;;;;;5035003;28;20042;-70
2024/01/17 07:13:04;;;;;;;3.28;3.03;;;0.70;99.90;;;;;;5035154;28;20096;-69
2024/01/17 07:15:31;;;;;;;5.88;5.28;;;0.80;99.90;;;;;;5035339;28;20026;-69
2024/01/17 07:17:57;;;;;;;4.32;3.22;;;0.90;99.90;;;;;;5035323;28;20054;-69
2024/01/17 07:20:22;;;;;;;11.07;5.15;;;0.90;99.90;;;;;;5035235;28;20110;-69
2024/01/17 07:22:48;;;;;;;11.27;6.55;;;0.90;99.90;;;;;;5034928;28;20088;-70
2024/01/17 07:25:13;;;;;;;9.02;4.38;;;1.00;99.90;;;;;;5035274;28;20030;-69
2024/01/17 07:27:40;;;;;;;6.15;3.28;;;1.00;99.90;;;;;;5035103;28;20033;-69
2024/01/17 07:30:07;;;;;;;2.63;2.53;;;1.00;99.90;;;;;;5035183;28;20031;-69
2024/01/17 07:32:33;;;;;;;3.50;2.53;;;1.00;99.90;;;;;;5034334;28;20037;-70
2024/01/17 07:34:59;;;;;;;4.55;3.22;;;1.00;99.90;;;;;;5035242;28;20034;-70
2024/01/17 07:37:24;;;;;;;10.63;4.18;;;1.00;99.90;;;;;;5034889;28;20528;-69
2024/01/17 07:39:50;;;;;;;12.57;4.32;;;1.00;99.90;;;;;;5034494;28;20036;-69
2024/01/17 07:42:18;;;;;;;2.35;2.13;;;1.00;99.90;;;;;;5035187;28;20029;-69
2024/01/17 07:44:47;;;;;;;15.02;5.25;;;1.00;99.90;;;;;;5034340;28;20029;-69
2024/01/17 07:47:12;;;;;;;8.38;5.22;;;1.00;99.90;;;;;;5034330;28;20038;-69
2024/01/17 07:49:39;;;;;;;8.40;4.63;;;0.90;99.90;;;;;;5034700;28;20049;-70
2024/01/17 07:52:05;;;;;;;11.00;4.30;;;0.90;99.90;;;;;;5034460;28;20125;-70
2024/01/17 07:54:32;;;;;;;4.25;3.67;;;0.90;99.90;;;;;;5034640;28;20497;-69
2024/01/17 07:56:58;;;;;;;7.03;3.72;;;0.80;99.90;;;;;;5034583;28;20033;-68
2024/01/17 07:59:24;;;;;;;1.27;1.27;;;0.90;99.90;;;;;;5034708;28;20021;-69
2024/01/17 08:01:49;;;;;;;3.08;2.75;;;0.90;99.90;;;;;;5034626;28;20041;-69
2024/01/17 08:04:16;;;;;;;4.00;2.65;;;0.90;99.90;;;;;;5031170;28;20433;-69
2024/01/17 08:06:46;;;;;;;1.42;1.42;;;0.90;99.90;;;;;;5037080;28;20057;-69
2024/01/17 08:09:20;;;;;;;6.80;2.78;;;0.90;99.90;;;;;;5034045;28;20128;-69
2024/01/17 08:11:54;;;;;;;5.28;2.95;;;0.90;99.90;;;;;;5034365;28;20112;-69
2024/01/17 08:14:20;;;;;;;12.73;6.43;;;1.00;99.90;;;;;;5033342;28;20489;-69
2024/01/17 08:16:47;;;;;;;3.53;2.78;;;1.00;99.90;;;;;;5034246;28;20071;-69
2024/01/17 08:19:14;;;;;;;6.10;4.05;;;1.00;99.90;;;;;;5033843;28;20025;-69
2024/01/17 08:21:40;;;;;;;7.00;4.85;;;0.90;99.90;;;;;;5033707;28;20120;-69
2024/01/17 08:24:06;;;;;;;13.55;6.97;;;0.90;99.90;;;;;;5033822;28;20021;-68
2024/01/17 08:26:32;;;;;;;6.88;3.78;;;0.90;99.90;;;;;;5034059;28;20084;-69
2024/01/17 08:28:57;;;;;;;15.88;6.00;;;0.90;99.90;;;;;;5033749;28;20036;-69
2024/01/17 08:31:23;;;;;;;9.38;4.18;;;0.90;99.90;;;;;;5033844;28;20116;-70
2024/01/17 08:33:50;;;;;;;5.13;2.55;;;0.80;99.90;;;;;;5029639;28;20041;-70
2024/01/17 08:36:16;;;;;;;11.85;3.70;;;0.90;99.90;;;;;;5033571;28;20094;-70
2024/01/17 08:38:42;;;;;;;6.07;3.38;;;0.80;99.90;;;;;;5033499;28;20025;-70
2024/01/17 08:41:08;;;;;;;2.75;1.63;;;0.80;99.90;;;;;;5033213;28;20382;-70
2024/01/17 08:43:34;;;;;;;2.63;1.38;;;0.90;99.90;;;;;;5033275;28;20033;-70
2024/01/17 08:46:02;;;;;;;6.13;4.28;;;0.90;99.90;;;;;;5033264;28;20018;-69
2024/01/17 08:48:28;;;;;;;7.32;4.15;;;1.00;99.90;;;;;;5032720;28;20116;-69
2024/01/17 08:50:54;;;;;;;3.70;2.28;;;1.10;99.90;;;;;;5032652;28;20068;-69
2024/01/17 08:53:20;;;;;;;12.10;4.68;;;1.10;99.90;;;;;;5033182;28;20529;-68
2024/01/17 08:55:47;;;;;;;2.70;2.47;;;1.10;99.90;;;;;;5032966;28;20048;-69
2024/01/17 08:58:12;;;;;;;8.85;5.10;;;1.10;99.90;;;;;;5033167;28;20033;-70
2024/01/17 09:00:38;;;;;;;4.20;3.00;;;1.10;99.90;;;;;;5032544;28;20104;-70
2024/01/17 09:03:04;;;;;;;2.75;2.55;;;1.10;99.90;;;;;;5033005;28;20396;-69
2024/01/17 09:05:30;;;;;;;7.85;4.50;;;1.10;99.90;;;;;;5030062;28;20083;-69
2024/01/17 09:07:56;;;;;;;3.88;2.78;;;1.00;99.90;;;;;;5032852;28;20469;-69
2024/01/17 09:10:22;;;;;;;7.00;3.53;;;1.10;99.90;;;;;;5032742;28;20128;-69
2024/01/17 09:12:50;;;;;;;6.63;4.00;;;1.10;99.90;;;;;;5032966;28;20132;-71
2024/01/17 09:15:16;;;;;;;9.13;5.07;;;1.10;99.90;;;;;;5032817;28;20025;-68
2024/01/17 09:17:41;;;;;;;9.95;4.97;;;1.10;99.90;;;;;;5032997;28;20035;-70
2024/01/17 09:20:07;;;;;;;10.68;5.45;;;1.10;99.90;;;;;;5033118;28;20104;-69
2024/01/17 09:22:33;;;;;;;3.38;2.92;;;1.20;99.90;;;;;;5032795;28;20021;-70
2024/01/17 09:25:00;;;;;;;12.93;5.68;;;1.20;99.90;;;;;;5033236;28;20032;-70
2024/01/17 09:27:29;;;;;;;8.02;3.60;;;1.20;99.90;;;;;;5032750;28;20037;-70
2024/01/17 09:29:56;;;;;;;1.70;1.42;;;1.20;99.90;;;;;;5031851;28;20071;-70
2024/01/17 09:32:22;;;;;;;5.20;2.13;;;1.30;99.90;;;;;;5032676;28;20031;-70
2024/01/17 09:34:47;;;;;;;4.07;2.67;;;1.30;99.90;;;;;;5032239;28;20029;-70
2024/01/17 09:37:16;;;;;;;6.97;3.72;;;1.50;99.90;;;;;;5032610;28;20067;-70
2024/01/17 09:39:43;;;;;;;12.35;5.20;;;1.60;99.90;;;;;;5032717;28;20037;-70
2024/01/17 09:42:09;;;;;;;7.53;3.10;;;1.70;99.90;;;;;;5032501;28;20025;-70
2024/01/17 09:44:35;;;;;;;17.42;6.00;;;1.70;99.90;;;;;;5032175;28;20087;-70
2024/01/17 09:47:01;;;;;;;6.15;4.10;;;1.70;99.90;;;;;;5032630;28;20022;-70
2024/01/17 09:49:27;;;;;;;12.52;4.65;;;1.60;99.90;;;;;;5031820;28;20034;-70
2024/01/17 09:51:54;;;;;;;5.22;2.58;;;1.60;99.90;;;;;;5032860;28;20025;-70
2024/01/17 09:54:24;;;;;;;6.82;3.38;;;1.60;99.90;;;;;;5032696;28;20058;-71
2024/01/17 09:56:51;;;;;;;8.48;3.35;;;1.60;99.90;;;;;;5031306;28;20381;-71
2024/01/17 09:59:23;;;;;;;3.15;1.60;;;1.60;99.90;;;;;;5032284;28;20057;-71
2024/01/17 10:01:48;;;;;;;;;;;1.70;99.90;;;;;;5032769;28;20033;-71
2024/01/17 10:04:15;;;;;;;1.50;0.73;;;1.90;99.90;;;;;;5032025;28;19911;-70
2024/01/17 10:06:44;;;;;;;0.95;0.95;;;2.00;99.90;;;;;;5032223;28;20029;-70
2024/01/17 10:09:10;;;;;;;4.43;2.92;;;2.20;99.90;;;;;;5033915;28;20049;-70
2024/01/17 10:11:36;;;;;;;1.42;1.35;;;2.50;99.90;;;;;;5036120;28;20080;-71
2024/01/17 10:14:02;;;;;;;3.50;2.53;;;2.60;99.90;;;;;;5036111;28;20038;-70
2024/01/17 10:16:28;;;;;;;0.60;0.60;;;2.70;99.90;;;;;;5036400;28;20486;-70
2024/01/17 10:18:54;;;;;;;2.15;1.45;;;2.70;99.90;;;;;;5036564;28;20032;-71
2024/01/17 10:21:20;;;;;;;4.97;2.63;;;2.80;99.90;;;;;;5036581;28;20022;-70
2024/01/17 10:23:46;;;;;;;2.30;1.42;;;2.80;99.90;;;;;;5036100;28;20033;-69
2024/01/17 10:26:11;;;;;;;8.75;4.03;;;2.70;99.90;;;;;;5036289;28;20029;-70
2024/01/17 10:28:37;;;;;;;4.82;2.75;;;2.80;99.90;;;;;;5036189;28;20037;-69
2024/01/17 10:31:05;;;;;;;5.28;1.58;;;2.90;99.90;;;;;;5035834;28;20242;-70
2024/01/17 10:33:34;;;;;;;1.88;1.75;;;2.90;99.90;;;;;;5034474;28;20118;-70
2024/01/17 10:35:59;;;;;;;0.70;0.28;;;3.00;99.90;;;;;;5035854;28;20026;-70
2024/01/17 10:38:31;;;;;;;3.17;1.98;;;3.00;99.90;;;;;;5036141;28;20031;-70
2024/01/17 10:41:10;;;;;;;0.52;0.50;;;3.10;99.90;;;;;;5035636;28;20033;-70
2024/01/17 10:43:53;;;;;;;2.15;1.15;;;3.00;99.90;;;;;;5035520;28;20021;-69
2024/01/17 10:46:19;;;;;;;4.03;3.63;;;3.20;99.90;;;;;;5035836;28;20029;-70
2024/01/17 10:48:45;;;;;;;0.65;0.65;;;3.20;99.90;;;;;;5035954;28;20032;-70
2024/01/17 10:51:16;;;;;;;4.28;2.78;;;3.20;99.90;;;;;;5035554;28;20392;-69
2024/01/17 10:53:42;;;;;;;9.55;4.55;;;3.20;99.90;;;;;;5035529;28;20099;-70
2024/01/17 10:56:09;;;;;;;5.63;2.92;;;3.10;99.90;;;;;;5035634;28;20116;-70
2024/01/17 10:58:35;;;;;;;6.40;3.28;;;3.00;99.90;;;;;;5017733;28;20378;-69
2024/01/17 11:01:06;;;;;;;6.40;3.83;;;2.90;99.90;;;;;;5034816;28;20034;-68
2024/01/17 11:03:36;;;;;;;4.45;2.78;;;2.80;99.90;;;;;;5035475;28;20382;-69
2024/01/17 11:06:02;;;;;;;1.48;1.40;;;2.80;99.90;;;;;;5035458;28;20120;-69
2024/01/17 11:08:29;;;;;;;6.03;3.17;;;2.80;99.90;;;;;;5034960;28;20095;-70
2024/01/17 11:10:56;;;;;;;8.73;4.75;;;2.90;99.90;;;;;;5034755;28;20136;-70
2024/01/17 11:13:25;;;;;;;3.22;1.92;;;2.80;99.90;;;;;;5034246;28;20052;-70
2024/01/17 11:15:52;;;;;;;0.90;0.68;;;2.90;99.90;;;;;;5034990;28;20037;-69
2024/01/17 11:18:20;;;;;;;2.95;2.20;;;3.00;99.90;;;;;;5034886;28;20026;-69
2024/01/17 11:20:46;;;;;;;0.10;0.10;;;3.00;99.90;;;;;;5035261;28;20464;-69
2024/01/17 11:23:24;;;;;;;0.38;0.38;;;3.20;99.90;;;;;;5035343;28;20033;-70
2024/01/17 11:26:12;;;;;;;1.95;1.10;;;3.50;99.90;;;;;;5035076;28;20029;-68
2024/01/17 11:29:00;;;;;;;3.90;2.80;;;3.70;99.90;;;;;;5034671;28;20026;-70
2024/01/17 11:31:47;;;;;;;0.57;0.57;;;3.80;99.90;;;;;;5034767;28;20032;-70
2024/01/17 11:34:13;;;;;;;1.65;0.60;;;3.80;99.90;;;;;;5034887;28;20045;-70
2024/01/17 11:36:45;;;;;;;0.70;0.70;;;3.90;99.90;;;;;;5034560;28;20030;-71
2024/01/17 11:39:16;;;;;;;0.10;0.10;;;4.00;99.90;;;;;;5034776;28;20040;-70
2024/01/17 11:41:43;;;;;;;10.35;3.83;;;4.00;99.90;;;;;;5034760;28;20069;-71
2024/01/17 11:44:14;;;;;;;7.72;3.10;;;4.00;99.90;;;;;;5035067;28;20113;-71
2024/01/17 11:46:40;;;;;;;1.95;0.77;;;4.00;99.90;;;;;;5034794;28;20481;-71
2024/01/17 11:49:09;;;;;;;0.63;0.63;;;3.90;99.90;;;;;;5034579;28;20068;-72
2024/01/17 11:51:36;;;;;;;2.97;1.83;;;3.90;99.90;;;;;;5034584;28;20088;-71
2024/01/17 11:54:03;;;;;;;7.10;2.63;;;3.80;99.90;;;;;;5034424;28;20041;-72
2024/01/17 11:56:29;;;;;;;0.82;0.68;;;3.70;99.90;;;;;;5033672;28;20036;-72
2024/01/17 11:59:05;;;;;;;5.47;2.58;;;3.70;99.90;;;;;;5033094;28;20038;-72
2024/01/17 12:01:36;;;;;;;6.20;3.38;;;3.70;99.90;;;;;;5034129;28;20026;-72
2024/01/17 12:04:31;;;;;;;2.08;1.17;;;3.80;99.90;;;;;;5033819;28;20117;-73
2024/01/17 12:06:57;;;;;;;1.33;1.05;;;3.80;99.90;;;;;;5028877;28;20041;-72
2024/01/17 12:09:23;;;;;;;0.20;0.20;;;3.80;99.90;;;;;;5033518;28;20060;-73
2024/01/17 12:11:49;;;;;;;0.25;0.25;;;3.80;99.90;;;;;;5034655;28;20034;-74
2024/01/17 12:14:17;;;;;;;1.95;1.60;;;3.80;99.90;;;;;;5033856;28;20045;-72
2024/01/17 12:16:46;;;;;;;1.35;1.25;;;3.90;99.90;;;;;;5032612;28;20355;-72
2024/01/17 12:19:13;;;;;;;1.75;1.45;;;3.90;99.90;;;;;;5034138;28;20485;-73
2024/01/17 12:21:39;;;;;;;4.15;1.20;;;3.80;99.90;;;;;;5033958;28;20033;-73
2024/01/17 12:24:11;;;;;;;2.75;2.08;;;3.80;99.90;;;;;;5033724;28;20034;-72
2024/01/17 12:26:36;;;;;;;1.77;1.60;;;3.80;99.90;;;;;;5032679;28;20131;-73
2024/01/17 12:29:06;;;;;;;4.07;1.77;;;3.80;99.90;;;;;;5033573;28;20068;-70
2024/01/17 12:31:32;;;;;;;0.40;0.40;;;3.90;99.90;;;;;;5032863;28;20438;-73
2024/01/17 12:33:58;;;;;;;2.10;1.35;;;3.90;99.90;;;;;;5033693;28;20197;-72
2024/01/17 12:36:23;;;;;;;2.00;1.08;;;4.00;99.90;;;;;;5032151;28;20021;-71
2024/01/17 12:38:51;;;;;;;0.20;0.20;;;4.00;99.90;;;;;;5033547;28;20382;-73
2024/01/17 12:41:16;;;;;;;0.52;0.52;;;4.10;99.90;;;;;;5032879;28;20018;-72
2024/01/17 12:43:42;;;;;;;1.45;0.77;;;4.20;99.90;;;;;;5033065;28;20047;-72
2024/01/17 12:46:08;;;;;;;0.20;0.20;;;4.30;99.90;;;;;;5032474;28;20374;-72
2024/01/17 12:48:35;;;;;;;0.17;0.17;;;4.30;99.90;;;;;;5032046;28;20033;-73
2024/01/17 12:51:06;;;;;;;0.10;0.10;;;4.40;99.90;;;;;;5033257;28;20025;-72
2024/01/17 12:53:32;;;;;;;0.32;0.32;;;4.50;99.90;;;;;;5031465;28;20470;-73